Private Wetterstation Nrnberg - Katzwang
Wetterdaten: Februar 2012
Datum Temp. A. Feuchte A. Luftdruck Regen Wind Richtung Taupunkt Windchill Windben
01.02.2012 -6,3 C 61 % 1021 hPa 0,0 l/m 8,0 km/h N-NO -12,9 C -9,4 C 10,6 km/h
02.02.2012 -9,3 C 54 % 1024 hPa 0,0 l/m 9,1 km/h N-NO -17,0 C -12,4 C 10,1 km/h
03.02.2012 -12,1 C 63 % 1029 hPa 0,0 l/m 2,6 km/h N-NO -17,9 C -13,2 C 3,6 km/h
04.02.2012 -13,5 C 71 % 1031 hPa 0,0 l/m 1,7 km/h N-NO -17,8 C -13,6 C 2,7 km/h
05.02.2012 -13,6 C 67 % 1029 hPa 0,0 l/m 2,0 km/h O -18,5 C -14,1 C 3,0 km/h
06.02.2012 -13,8 C 66 % 1028 hPa 0,0 l/m 0,0 km/h N-NO -18,8 C -13,8 C 1,0 km/h
07.02.2012 -10,5 C 73 % 1029 hPa 0,0 l/m 8,9 km/h N-NO -14,4 C -15,0 C 9,9 km/h
08.02.2012 -8,6 C 72 % 1030 hPa 0,0 l/m 0,3 km/h N-NO -12,7 C -8,6 C 1,4 km/h
09.02.2012 -9,2 C 81 % 1027 hPa 0,0 l/m 1,5 km/h N -11,9 C -9,2 C 2,5 km/h
10.02.2012 -9,6 C 74 % 1030 hPa 0,0 l/m 3,1 km/h N-NO -13,4 C -9,6 C 4,1 km/h
11.02.2012 -11,0 C 70 % 1027 hPa 1,0 l/m 3,8 km/h N-NO -15,5 C -11,9 C 4,8 km/h
12.02.2012 -12,6 C 71 % 1025 hPa 0,0 l/m 0,0 km/h W-NW -16,9 C -12,6 C 1,0 km/h
13.02.2012 -5,7 C 82 % 1017 hPa 0,0 l/m 1,9 km/h N -8,3 C -5,7 C 2,9 km/h
14.02.2012 -0,7 C 85 % 1011 hPa 0,0 l/m 4,8 km/h W-NW -2,9 C -2,3 C 5,8 km/h
15.02.2012 1,4 C 84 % 1006 hPa 0,0 l/m 14,0 km/h W-NW -1,0 C -2,9 C 16,2 km/h
16.02.2012 0,3 C 80 % 1020 hPa 0,0 l/m 2,3 km/h W-NW -2,8 C 0,3 C 3,3 km/h
17.02.2012 3,0 C 87 % 1019 hPa 0,0 l/m 4,1 km/h W-NW 1,0 C 2,0 C 5,1 km/h
18.02.2012 4,0 C 85 % 1014 hPa 0,0 l/m 3,4 km/h N-NO 1,7 C 3,8 C 4,4 km/h
19.02.2012 1,5 C 84 % 1017 hPa 0,0 l/m 0,3 km/h W-NW -0,9 C 1,5 C 1,4 km/h
20.02.2012 -2,0 C 81 % 1030 hPa 0,0 l/m 0,0 km/h N-NO -4,9 C -2,0 C 1,0 km/h
21.02.2012 -0,1 C 75 % 1028 hPa 0,0 l/m 5,1 km/h N-NO -4,2 C -1,1 C 6,1 km/h
22.02.2012 1,7 C 77 % 1025 hPa 0,0 l/m 0,0 km/h NO -2,0 C 1,7 C 1,0 km/h
23.02.2012 4,3 C 81 % 1022 hPa 0,0 l/m 4,8 km/h W-NW 1,3 C 4,2 C 5,8 km/h
24.02.2012 7,1 C 86 % 1022 hPa 0,0 l/m 4,4 km/h W-NW 5,0 C 6,2 C 5,4 km/h
25.02.2012 7,7 C 80 % 1018 hPa 0,0 l/m 2,6 km/h W-NW 4,5 C 7,1 C 3,6 km/h
26.02.2012 2,3 C 82 % 1020 hPa 3,5 l/m 0,0 km/h W-NW -0,5 C 2,3 C 1,0 km/h
27.02.2012 3,1 C 81 % 1022 hPa 0,5 l/m 2,7 km/h W-NW 0,0 C 2,2 C 3,7 km/h
28.02.2012 6,1 C 85 % 1020 hPa 0,5 l/m 6,5 km/h W-NW 3,7 C 4,8 C 7,5 km/h
29.02.2012 8,2 C 86 % 1022 hPa 0,0 l/m 1,4 km/h W-NW 6,0 C 8,2 C 2,4 km/h
Min-Datum 06.02.12 02.02.12 15.02.12 4 Tage 01.02.12 - 06.02.12 11.02.12 01.02.12
Min-Zeit 08:00 14:00 06:30 - 01:20 - 08:00 09:50 01:20
Minimum -19,9 C 37 % 1000 hPa - 0,0 km/h - -22,9 C -23,3 C 1,0 km/h
Max-Datum 25.02.12 15.02.12 04.02.12 26.02.12 15.02.12 - 29.02.12 25.02.12 15.02.12
Max-Zeit 14:50 10:10 09:10 16:00 14:30 - 15:40 12:30 05:20
Maximum 11,3 C 88 % 1033 hPa 3,5 l/m 32,8 km/h
W-NW
- 7,8 C 11,1 C 87,9 km/h
W-NW
Durchschnitt -3,0 C 77 % 1023 hPa #5,5 l/m 3,4 km/h N-NO -6,6 C -3,9 C 4,5 km/h

Durchschnitt Minimum Temp.-7,0 C
Durchschnitt Maximum Temp.1,0 C